Tiempo atmosférico en la estación meteorológica de Villamayor de los Montes, Burgos (882 m.)



Fecha
DESCASC
Temp. máxima en grados centígrados (hora)
DESCASC
Temp. mínima en grados centígrados (hora)
DESCASC
Temp. media en grados centígrados
DESCASC
Racha de viento máxima en m/sg (hora)
DESCASC
Velocidad máxima media en intervalos de 10 minutos(hora)
DESCASC
Precipitaciones diarias en mm
DESCASC
Precipitaciones de 00:00 a 06:00 en mm
DESCASC
Precipitaciones de 06:00 a 12:00 en mm
DESCASC
Precipitaciones de 12:00 a 18:00 en mm
DESCASC
Precipitaciones de 18:00 a 24:00 en mm
DESCASC
27-10-2020 9.4 (16:50) 4.3 (01:30) 6.8 10.28 (13:50) 6.11 (14:00) 0.4 0 0 0 0.4
26-10-2020 10.7 (16:20) 2.2 (06:50) 6.4 9.44 (14:20) 4.44 (17:00) 0 0 0 0 0
25-10-2020 12.3 (13:20) 5 (23:59) 8.7 18.89 (13:10) 11.39 (09:20) 4.8 0 0.4 4.4 0
24-10-2020 10.9 (17:20) 5.1 (00:00) 8 11.11 (23:59) 8.06 (23:59) 0 0 0 0 0
23-10-2020 12.4 (18:00) 7.4 (00:00) 9.9 9.72 (03:10) 5.83 (02:50) 2.8 2.8 0 0 0
22-10-2020 14.8 (13:40) 9.8 (00:00) 12.3 12.22 (14:00) 7.5 (14:00) 15 9.8 0.4 4.2 0.6
21-10-2020 15.7 (16:00) 10.7 (00:00) 13.2 17.78 (16:10) 11.94 (00:40) 14.6 11.4 0 2 1.2
20-10-2020 17.3 (00:00) 11.1 (00:00) 14.2 16.39 (23:50) 10.83 (23:40) 27.6 2.2 10.6 7 7.8
19-10-2020 23.2 (15:20) 9.4 (00:00) 16.3 15 (16:00) 9.72 (18:40) 0 0 0 0 0
18-10-2020 20.4 (17:30) 2 (00:00) 11.2 4.17 (23:10) 2.78 (23:40) 0 0 0 0 0
17-10-2020 16.1 (18:00) 0.8 (00:00) 8.5 7.22 (14:10) 3.89 (14:00) 0 0 0 0 0
16-10-2020 13 (17:10) -0.7 (-00:0) 6.2 7.5 (14:00) 3.89 (12:40) 0 0 0 0 0
15-10-2020 11.7 (15:50) 1.2 (00:00) 6.4 11.39 (17:20) 7.22 (16:50) 0 0 0 0 0
14-10-2020 13.5 (15:00) 0.9 (00:00) 7.2 9.72 (17:00) 5.83 (16:20) 0 0 0 0 0
13-10-2020 17.5 (17:10) 7.5 (00:00) 12.5 11.94 (22:00) 7.22 (22:20) 0 0 0 0 0
12-10-2020 16 (17:50) 5 (00:00) 10.5 10.83 (00:20) 5.83 (00:20) 0 0 0 0 0
11-10-2020 12.2 (14:50) 6 (00:00) 9.1 16.94 (17:20) 11.11 (16:50) 0 0 0 0 0
10-10-2020 14.9 (11:40) 7.8 (00:00) 11.3 16.39 (14:10) 8.33 (13:30) 0 0 0 0 0
09-10-2020 23.3 (17:10) 7.8 (00:00) 15.5 9.17 (22:30) 5.28 (22:40) 0 0 0 0 0
08-10-2020 22.9 (15:10) 7 (00:00) 14.9 6.39 (18:00) 3.33 (16:00) 0 0 0 0 0
07-10-2020 22.1 (17:10) 8.1 (00:00) 15.1 4.72 (09:10) 3.61 (08:50) 0 0 0 0 0
06-10-2020 21.6 (17:40) 12 (00:00) 16.8 10 (15:20) 7.22 (15:00) 0 0 0 0 0
05-10-2020 16.6 (17:30) 4.6 (00:00) 10.6 8.89 (16:50) 4.44 (16:00) 0 0 0 0 0
04-10-2020 15.3 (16:40) 5.8 (00:00) 10.6 16.11 (14:40) 8.06 (14:40) 1.6 0 1.6 0 0
03-10-2020 14.8 (16:00) 3.4 (00:00) 9.1 13.06 (15:40) 6.67 (13:40) 0 0 0 0 0
02-10-2020 13.2 (00:10) 5.8 (00:00) 9.5 19.17 (05:00) 13.33 (05:20) 7.4 0.2 7.2 0 0
01-10-2020 18.1 (16:40) 9.3 (00:00) 13.7 13.06 (18:10) 7.5 (23:10) 0 0 0 0 0
30-09-2020 24.1 (16:20) 5.8 (00:00) 15 9.44 (15:10) 4.72 (16:50) 0 0 0 0 0

Gráficas

Temp. máximas Temp. mínimas Temp. medias Precipitaciones Rachas de viento máximas Velocidades máximas media en intervalos de 10 minutos

Datos horarios

Fecha y hora oficial Temperatura (ºC) Velocidad del viento (km/h) Dirección del viento Racha (km/h) Dirección de racha Precipitación (mm) Presión (hPa) Tendencia (hPa) Humedad (%)
2020-10-29 23:00:00 5.5 0 Calma -- -- 0 -- -- 93
2020-10-29 22:00:00 6.6 0 Calma 3 Este 0 -- -- 91
2020-10-29 21:00:00 8 3 Este 4 Este 0 -- -- 88
2020-10-29 20:00:00 9.7 0 Calma 3 Oeste 0 -- -- 86
2020-10-29 19:00:00 12.1 0 Calma 4 Oeste 0 -- -- 79
2020-10-29 18:00:00 15.5 2 Oeste 10 Sudoeste 0 -- -- 66
2020-10-29 17:00:00 16.9 5 Sudoeste 10 Sudoeste 0 -- -- 59
2020-10-29 16:00:00 16.6 3 Sudoeste 12 Sudoeste 0 -- -- 58
2020-10-29 15:00:00 15.8 6 Oeste 13 Oeste 0 -- -- 62
2020-10-29 14:00:00 15.1 5 Oeste 14 Oeste 0 -- -- 64
2020-10-29 13:00:00 14.2 6 Sudoeste 16 Sudoeste 0 -- -- 66
2020-10-29 12:00:00 13 9 Sudoeste 17 Sudoeste 0 -- -- 72
2020-10-29 11:00:00 11.8 5 Sudoeste 12 Sudoeste 0 -- -- 76
2020-10-29 10:00:00 10 3 Sur 7 Sur 0 -- -- 90
2020-10-29 09:00:00 7.8 2 Nordeste 14 Sur 0 -- -- 95
2020-10-29 08:00:00 7.8 12 Sur 16 Sur 0 -- -- 95
2020-10-29 07:00:00 6.5 2 Norte 7 Este 0 -- -- 97
2020-10-29 06:00:00 6.3 4 Nordeste 9 Sudeste 0 -- -- 96
2020-10-29 05:00:00 5.7 2 Nordeste 12 Sur 0 -- -- 95
2020-10-29 04:00:00 6 4 Sudeste 12 Sur 0 -- -- 94
2020-10-29 03:00:00 6.9 7 Sur 10 Sur 0 -- -- 94
2020-10-29 02:00:00 7.4 6 Sur 18 Sur 0 -- -- 94
2020-10-29 01:00:00 7.4 9 Sur 14 Sur 0 -- -- 95
2020-10-29 00:00:00 8 7 Sur 12 Sur 0 -- -- 93
2020-10-28 23:00:00 8.4 2 Sur 9 Sudoeste 0 -- -- 92
2020-10-28 22:00:00 9 8 Sur 14 Sur 0 -- -- 92
2020-10-28 21:00:00 10.1 7 Sur 10 Sur 0 -- -- 89
2020-10-28 20:00:00 11 0 Calma 8 Oeste 0 -- -- 86
2020-10-28 19:00:00 12.2 3 Sudoeste 6 Sudoeste 0 -- -- 83
2020-10-28 18:00:00 13.5 5 Sudoeste 23 Sudoeste 0 -- -- 77
2020-10-28 17:00:00 15.5 10 Sudoeste 23 Oeste 0 -- -- 67
2020-10-28 16:00:00 14.6 6 Oeste 24 Sudoeste 0 -- -- 74
2020-10-28 15:00:00 14.5 11 Oeste 24 Sudoeste 0 -- -- 76
2020-10-28 14:00:00 14.3 12 Sudoeste 27 Sudoeste 0 -- -- 77
2020-10-28 13:00:00 13.3 11 Oeste 25 Sudoeste 0 -- -- 82
2020-10-28 12:00:00 12.8 14 Sudoeste 26 Sudoeste 0 -- -- 87
2020-10-28 11:00:00 11.9 14 Sudoeste 23 Sudoeste 0 -- -- 91
2020-10-28 10:00:00 10.9 15 Sudoeste 22 Sudoeste 0 -- -- 97
2020-10-28 09:00:00 10.2 11 Sudoeste 18 Sudoeste 0 -- -- 97
2020-10-28 08:00:00 9.9 9 Sudoeste 17 Sudoeste 0 -- -- 97
2020-10-28 07:00:00 9.7 12 Sudoeste 22 Sur 0 -- -- 96
2020-10-28 06:00:00 9.5 15 Sur 20 Sudoeste 0 -- -- 96
2020-10-28 05:00:00 9.4 14 Sur 20 Sudoeste 0 -- -- 96
2020-10-28 04:00:00 9.2 13 Sudoeste 24 Sudoeste 0 -- -- 95
2020-10-28 03:00:00 9.1 15 Sur 22 Sur 0 -- -- 95
2020-10-28 02:00:00 9.2 11 Sur 26 Sur 0 -- -- 92
2020-10-28 01:00:00 9.1 16 Sur 24 Sur 0 -- -- 93
2020-10-28 00:00:00 9 13 Sur 23 Sur 0 -- -- 94
2020-10-27 23:00:00 9 14 Sur 22 Sur 0 -- -- 95
2020-10-27 22:00:00 8.8 13 Sur 26 Sudoeste 0 -- -- 94
2020-10-27 21:00:00 8.6 17 Sur 24 Sur 0 -- -- 93
2020-10-27 20:00:00 8.6 14 Sur 31 Sur 0 -- -- 94
2020-10-27 19:00:00 8.7 19 Sudoeste 26 Sudoeste 0.4 -- -- 92
2020-10-27 18:00:00 9.3 13 Sur 24 Sur 0 -- -- 86
2020-10-27 17:00:00 9.4 17 Sudoeste 27 Sudoeste 0 -- -- 85
2020-10-27 16:00:00 9.3 17 Sudoeste 30 Sudoeste 0 -- -- 85
2020-10-27 15:00:00 9.2 19 Sudoeste 35 Sudoeste 0 -- -- 83
2020-10-27 14:00:00 9 22 Sudoeste 37 Sudoeste 0 -- -- 82
2020-10-27 13:00:00 8.3 15 Sudoeste 31 Sudoeste 0 -- -- 86
2020-10-27 12:00:00 7.2 13 Sudoeste 30 Sudoeste 0 -- -- 92
2020-10-27 11:00:00 6.7 18 Sudoeste 29 Sudoeste 0 -- -- 92
2020-10-27 10:00:00 5.5 18 Sudoeste 28 Sudoeste 0 -- -- 94
2020-10-27 09:00:00 5.5 14 Sudoeste 26 Sur 0 -- -- 94
2020-10-27 08:00:00 5.1 16 Sudoeste 24 Sudoeste 0 -- -- 94
2020-10-27 07:00:00 5 14 Sudoeste 24 Sudoeste 0 -- -- 94
2020-10-27 06:00:00 4.9 17 Sur 24 Sudoeste 0 -- -- 94
2020-10-27 05:00:00 4.9 13 Sur 20 Sur 0 -- -- 95
2020-10-27 04:00:00 4.6 12 Sur 19 Sudoeste 0 -- -- 94
2020-10-27 03:00:00 4.3 9 Sudoeste 15 Sudoeste 0 -- -- 93
2020-10-27 02:00:00 4.3 10 Sudoeste 17 Sudoeste 0 -- -- 93
2020-10-27 01:00:00 4.5 9 Sudoeste 16 Sudoeste 0 -- -- 92
2020-10-27 00:00:00 4.4 10 Sur 15 Sur 0 -- -- 91
2020-10-26 23:00:00 4.7 7 Sudoeste 15 Sudoeste 0 -- -- 90
2020-10-26 22:00:00 4.9 10 Sudoeste 15 Sudoeste 0 -- -- 86
2020-10-26 21:00:00 5.4 6 Sudoeste 13 Oeste 0 -- -- 80
2020-10-26 20:00:00 6.7 8 Sudoeste 15 Oeste 0 -- -- 75
2020-10-26 19:00:00 7.5 4 Sudoeste 15 Noroeste 0 -- -- 74
2020-10-26 18:00:00 9.2 10 Oeste 30 Oeste 0 -- -- 64
2020-10-26 17:00:00 10.1 16 Oeste 33 Oeste 0 -- -- 61
2020-10-26 16:00:00 10.3 11 Oeste 30 Oeste 0 -- -- 60
2020-10-26 15:00:00 9.8 14 Oeste 34 Oeste 0 -- -- 65
2020-10-26 14:00:00 10.2 14 Oeste 30 Oeste 0 -- -- 67
2020-10-26 13:00:00 8.9 14 Oeste 31 Oeste 0 -- -- 73
2020-10-26 12:00:00 6.6 11 Oeste 23 Oeste 0 -- -- 81
2020-10-26 11:00:00 5.4 8 Oeste 19 Oeste 0 -- -- 84
2020-10-26 10:00:00 4 9 Oeste 27 Oeste 0 -- -- 90
2020-10-26 09:00:00 3.4 8 Oeste 23 Oeste 0 -- -- 93
2020-10-26 08:00:00 2.9 6 Sudoeste 14 Sudoeste 0 -- -- 95
2020-10-26 07:00:00 2.3 6 Sudoeste 15 Oeste 0 -- -- 96
2020-10-26 06:00:00 2.5 6 Oeste 17 Sudoeste 0 -- -- 95
2020-10-26 05:00:00 3 10 Sudoeste 17 Sudoeste 0 -- -- 95
2020-10-26 04:00:00 3.2 6 Sudoeste 11 Sudoeste 0 -- -- 95
2020-10-26 03:00:00 3.3 5 Oeste 16 Sudoeste 0 -- -- 94
2020-10-26 02:00:00 3.9 10 Sudoeste 17 Sudoeste 0 -- -- 93
2020-10-26 01:00:00 4.2 6 Sudoeste 23 Oeste 0 -- -- 92
2020-10-26 00:00:00 5 16 Sudoeste 24 Sudoeste 0 -- -- 92
2020-10-25 23:00:00 5.9 14 Sudoeste 24 Sudoeste 0 -- -- 89
2020-10-25 22:00:00 6 13 Sudoeste 21 Sudoeste 0 -- -- 90
2020-10-25 21:00:00 6.6 8 Sudoeste 22 Oeste 0 -- -- 85
2020-10-25 20:00:00 7.4 10 Oeste 25 Oeste 0 -- -- 82
2020-10-25 19:00:00 8.1 12 Noroeste 37 Oeste 0 -- -- 78
2020-10-25 18:00:00 10 18 Sudoeste 39 Sudoeste 0 -- -- 83
2020-10-25 17:00:00 10.3 19 Oeste 38 Sudoeste 0.8 -- -- 89
2020-10-25 16:00:00 10.7 21 Sudoeste 41 Sudoeste 1 -- -- 93
2020-10-25 15:00:00 11 17 Sudoeste 36 Sudoeste 1.2 -- -- 91
2020-10-25 14:00:00 11 21 Sudoeste 68 Sudoeste 1.4 -- -- 92
2020-10-25 13:00:00 12.1 39 Sudoeste 59 Sudoeste 0 -- -- 85
2020-10-25 12:00:00 11.3 27 Sudoeste 49 Sur 0.4 -- -- 83
2020-10-25 11:00:00 10.9 32 Sudoeste 53 Sur 0 -- -- 81
2020-10-25 10:00:00 10.9 36 Sudoeste 58 Sudoeste 0 -- -- 79
2020-10-25 09:00:00 10.2 36 Sur 50 Sudoeste 0 -- -- 83
2020-10-25 08:00:00 9.7 29 Sur 41 Sur 0 -- -- 84
2020-10-25 07:00:00 9.3 21 Sur 34 Sudoeste 0 -- -- 86
2020-10-25 06:00:00 9.4 24 Sur 41 Sur 0 -- -- 85
2020-10-25 05:00:00 9.1 27 Sur 38 Sur 0 -- -- 86
2020-10-25 04:00:00 9.5 26 Sur 41 Sudoeste 0 -- -- 83
2020-10-25 03:00:00 9.5 28 Sur 44 Sur 0 -- -- 83
2020-10-25 02:00:00 9.5 27 Sur 37 Sudoeste 0 -- -- 83
2020-10-25 01:00:00 9.5 33 Sur 48 Sudoeste 0 -- -- 83
2020-10-25 00:00:00 9.5 29 Sudoeste 40 Sudoeste 0 -- -- 84
2020-10-24 23:00:00 10.3 24 Sur 39 Sudoeste 0 -- -- 82
2020-10-24 22:00:00 10.3 26 Sur 37 Sudoeste 0 -- -- 81
2020-10-24 21:00:00 10.7 18 Sudoeste 28 Sudoeste 0 -- -- 80
2020-10-24 20:00:00 10.5 14 Sudoeste 26 Sudoeste 0 -- -- 83
2020-10-24 19:00:00 10.6 17 Sudoeste 30 Sudoeste 0 -- -- 81
2020-10-24 18:00:00 10.7 15 Sudoeste 29 Sudoeste 0 -- -- 80
2020-10-24 17:00:00 10.7 19 Sudoeste 33 Sudoeste 0 -- -- 79
2020-10-24 16:00:00 10.4 23 Sudoeste 36 Sudoeste 0 -- -- 79
2020-10-24 15:00:00 10 19 Sudoeste 35 Sudoeste 0 -- -- 80
2020-10-24 14:00:00 9 16 Sudoeste 29 Sur 0 -- -- 84
2020-10-24 13:00:00 8.2 17 Sudoeste 28 Sudoeste 0 -- -- 87
2020-10-24 12:00:00 7.3 14 Sudoeste 26 Sudoeste 0 -- -- 92
2020-10-24 11:00:00 6.5 15 Sudoeste 26 Sur 0 -- -- 98
2020-10-24 10:00:00 5.5 18 Sur 27 Sur 0 -- -- 98
2020-10-24 09:00:00 5.2 15 Sur 30 Sur 0 -- -- 97
2020-10-24 08:00:00 5.4 17 Sur 26 Sur 0 -- -- 96
2020-10-24 07:00:00 5.3 14 Sur 22 Sur 0 -- -- 95
2020-10-24 06:00:00 5.6 15 Sur 22 Sur 0 -- -- 94
2020-10-24 05:00:00 5.6 12 Sur 17 Sur 0 -- -- 94
2020-10-24 04:00:00 5.9 14 Sur 19 Sudoeste 0 -- -- 93
2020-10-24 03:00:00 6 14 Sur 24 Sur 0 -- -- 92
2020-10-24 02:00:00 6.9 13 Sur 19 Sur 0 -- -- 90
2020-10-24 01:00:00 6.9 10 Sur 19 Sur 0 -- -- 90
2020-10-24 00:00:00 7.4 12 Sur 18 Sur 0 -- -- 88
2020-10-23 23:00:00 7.9 13 Sur 18 Sur 0 -- -- 87
2020-10-23 22:00:00 8.9 8 Sur 13 Sur 0 -- -- 86
2020-10-23 21:00:00 9.9 6 Sudoeste 11 Sur 0 -- -- 81
2020-10-23 20:00:00 10.1 6 Sudoeste 9 Oeste 0 -- -- 81
2020-10-23 19:00:00 11.6 6 Oeste 15 Oeste 0 -- -- 73
2020-10-23 18:00:00 12.4 10 Oeste 21 Oeste 0 -- -- 67
2020-10-23 17:00:00 11.9 9 Sudoeste 21 Sudoeste 0 -- -- 73
2020-10-23 16:00:00 11.7 9 Oeste 20 Sudoeste 0 -- -- 74
2020-10-23 15:00:00 10.4 8 Sudoeste 19 Sudoeste 0 -- -- 79
2020-10-23 14:00:00 10.1 8 Oeste 26 Sudoeste 0 -- -- 82
2020-10-23 13:00:00 10.7 11 Oeste 28 Oeste 0 -- -- 77
2020-10-23 12:00:00 8.7 12 Oeste 27 Oeste 0 -- -- 89
2020-10-23 11:00:00 8.7 18 Sudoeste 29 Sudoeste 0 -- -- 91
2020-10-23 10:00:00 8.6 10 Sudoeste 23 Sudoeste 0 -- -- 94
2020-10-23 09:00:00 8.4 14 Sudoeste 21 Sudoeste 0 -- -- 95
2020-10-23 08:00:00 8.4 11 Sudoeste 24 Sur 0 -- -- 95
2020-10-23 07:00:00 8.5 14 Sudoeste 22 Sudoeste 0 -- -- 95
2020-10-23 06:00:00 8.8 15 Sudoeste 25 Sudoeste 0.4 -- -- 95
2020-10-23 05:00:00 9.2 13 Sudoeste 27 Sudoeste 0 -- -- 94
2020-10-23 04:00:00 9.6 16 Sudoeste 35 Sudoeste 0.2 -- -- 94
2020-10-23 03:00:00 9.9 21 Sudoeste 29 Sudoeste 0 -- -- 94
2020-10-23 02:00:00 10.2 10 Sur 23 Sur 1 -- -- 94
2020-10-23 01:00:00 10.5 14 Sur 20 Sur 1.2 -- -- 94
2020-10-23 00:00:00 10.7 8 Sur 20 Sur 0.6 -- -- 93
2020-10-22 23:00:00 10.9 14 Sur 18 Sur 0 -- -- 94
2020-10-22 22:00:00 11 8 Sur 12 Sur 0 -- -- 93
2020-10-22 21:00:00 11.3 4 Sur 8 Sur 0 -- -- 92
2020-10-22 20:00:00 11.5 3 Sudeste 5 Sudoeste 0 -- -- 92
2020-10-22 19:00:00 11.7 3 Sur 14 Sudoeste 0 -- -- 90
2020-10-22 18:00:00 11.7 7 Sudoeste 36 Sudoeste 3.6 -- -- 89
2020-10-22 17:00:00 14.1 10 Sur 23 Sur 0 -- -- 74
2020-10-22 16:00:00 13.8 15 Sur 27 Sur 0 -- -- 76
2020-10-22 15:00:00 13.4 16 Sur 37 Sudeste 0.4 -- -- 84
2020-10-22 14:00:00 13.3 27 Sur 44 Sur 0.2 -- -- 79
2020-10-22 13:00:00 14.4 19 Sur 28 Sur 0 -- -- 77
2020-10-22 12:00:00 14.1 18 Sur 33 Sur 0 -- -- 79
2020-10-22 11:00:00 13 22 Sur 31 Sur 0 -- -- 83
2020-10-22 10:00:00 11.3 18 Sur 26 Sur 0 -- -- 90
2020-10-22 09:00:00 10.3 13 Sur 19 Sur 0 -- -- 93
2020-10-22 08:00:00 10.6 16 Sur 23 Sur 0.4 -- -- 92
2020-10-22 07:00:00 10.3 11 Sur 22 Sudeste 0 -- -- 93
2020-10-22 06:00:00 10.1 9 Sur 18 Sur 0 -- -- 94
2020-10-22 05:00:00 10 13 Sur 22 Sur 0 -- -- 93
2020-10-22 04:00:00 9.8 14 Sudeste 22 Sudeste 0.2 -- -- 94
2020-10-22 03:00:00 9.8 12 Sur 23 Sur 3.4 -- -- 94
2020-10-22 02:00:00 10.1 13 Sur 21 Sudeste 3.6 -- -- 94
2020-10-22 01:00:00 10.4 14 Sur 27 Sur 2.6 -- -- 91
2020-10-22 00:00:00 10.9 15 Sur 23 Sur 0 -- -- 85
2020-10-21 23:00:00 10.7 14 Sur 21 Sur 0 -- -- 87
2020-10-21 22:00:00 11 14 Sur 23 Sur 0 -- -- 84
2020-10-21 21:00:00 11.2 16 Sur 23 Sur 0 -- -- 85
2020-10-21 20:00:00 11.5 16 Sur 21 Sur 0 -- -- 88
2020-10-21 19:00:00 11.8 24 Sudoeste 47 Sur 1.2 -- -- 82
2020-10-21 18:00:00 11.3 16 Sur 51 Sudoeste 0.2 -- -- 83
2020-10-21 17:00:00 12.8 13 Sudoeste 64 Sudoeste 1.8 -- -- 84
2020-10-21 16:00:00 15.7 24 Sudoeste 35 Sudoeste 0 -- -- 65
2020-10-21 15:00:00 15.1 10 Sudoeste 24 Sudoeste 0 -- -- 75
2020-10-21 14:00:00 14.6 11 Sudoeste 30 Sudoeste 0 -- -- 76
2020-10-21 13:00:00 13.6 17 Sudoeste 37 Sudoeste 0 -- -- 79
2020-10-21 12:00:00 14.3 23 Sudoeste 39 Sur 0 -- -- 75
2020-10-21 11:00:00 12.5 27 Sudoeste 41 Sudoeste 0 -- -- 80
2020-10-21 10:00:00 11.2 13 Sur 31 Sur 0 -- -- 87
2020-10-21 09:00:00 10.8 16 Sur 24 Sur 0 -- -- 86
2020-10-21 08:00:00 11.3 14 Sur 41 Sur 0 -- -- 84
2020-10-21 07:00:00 11.6 23 Sudoeste 45 Sudoeste 0 -- -- 83
2020-10-21 06:00:00 11.3 24 Sudoeste 35 Sur 0 -- -- 85
2020-10-21 05:00:00 11.5 27 Sur 39 Sudoeste 0 -- -- 86
2020-10-21 04:00:00 11.4 18 Sur 28 Sur 0 -- -- 91
2020-10-21 03:00:00 11.5 19 Sur 36 Sudoeste 0 -- -- 91
2020-10-21 02:00:00 12.1 19 Sudoeste 54 Sur 7.8 -- -- 90
2020-10-21 01:00:00 13.5 38 Sur 59 Sur 3.6 -- -- 90
2020-10-21 00:00:00 13.5 32 Sur 59 Sur 1.8 -- -- 87
2020-10-20 23:00:00 13.3 32 Sur 51 Sur 1.8 -- -- 85
2020-10-20 22:00:00 13.3 30 Sur 48 Sudeste 1.2 -- -- 83
2020-10-20 21:00:00 13.5 27 Sur 53 Sur 0.8 -- -- 82
2020-10-20 20:00:00 12.9 27 Sudeste 47 Sur 1 -- -- 86
2020-10-20 19:00:00 12.7 30 Sur 53 Sur 1.2 -- -- 85
2020-10-20 18:00:00 12.8 24 Sudeste 48 Sudeste 0.8 -- -- 82
2020-10-20 17:00:00 12.3 22 Sudeste 43 Sudeste 0.8 -- -- 86
2020-10-20 16:00:00 12.5 26 Sudeste 44 Sudeste 0.6 -- -- 88
2020-10-20 15:00:00 12.2 26 Sudeste 43 Sudeste 1.4 -- -- 91
2020-10-20 14:00:00 12.3 27 Sur 39 Sudeste 2 -- -- 92
2020-10-20 13:00:00 12.4 24 Sur 38 Sur 1.4 -- -- 90
2020-10-20 12:00:00 12.2 20 Sur 36 Sudeste 1 -- -- 89
2020-10-20 11:00:00 11.9 20 Sur 29 Sur 1 -- -- 89
2020-10-20 10:00:00 11.6 24 Sur 33 Sur 2 -- -- 89
2020-10-20 09:00:00 11.1 8 Sur 17 Sur 2.6 -- -- 90
2020-10-20 08:00:00 11.2 12 Sur 36 Sudeste 2.4 -- -- 88
2020-10-20 07:00:00 12.2 20 Sur 32 Sur 1.6 -- -- 80
2020-10-20 06:00:00 12.4 12 Sudeste 20 Sudeste 0 -- -- 76
2020-10-20 05:00:00 12.1 14 Sur 36 Sur 1.6 -- -- 78
2020-10-20 04:00:00 13.3 21 Sur 33 Sur 0.4 -- -- 68
2020-10-20 03:00:00 14 14 Sur 23 Sur 0.2 -- -- 63
2020-10-20 02:00:00 14.3 17 Sur 26 Sur 0 -- -- 63
2020-10-20 01:00:00 15 15 Sur 42 Sudoeste 0 -- -- 57
2020-10-20 00:00:00 17.3 20 Sur 33 Sur 0 -- -- 42
2020-10-19 23:00:00 16.8 20 Sur 28 Sur 0 -- -- 41
2020-10-19 22:00:00 17.4 14 Sur 30 Sur 0 -- -- 40
2020-10-19 21:00:00 18.1 15 Sur 39 Sudoeste 0 -- -- 37
2020-10-19 20:00:00 19.2 24 Sudoeste 50 Sur 0 -- -- 33
2020-10-19 19:00:00 20.2 30 Sudoeste 50 Sudoeste 0 -- -- 32
2020-10-19 18:00:00 21.7 29 Sudoeste 44 Sudoeste 0 -- -- 31
2020-10-19 17:00:00 22.3 31 Sudoeste 48 Sur 0 -- -- 29
2020-10-19 16:00:00 23.1 33 Sudoeste 54 Sur 0 -- -- 28
2020-10-19 15:00:00 22.5 28 Sur 45 Sur 0 -- -- 28
2020-10-19 14:00:00 21 21 Sudoeste 38 Sur 0 -- -- 32
2020-10-19 13:00:00 19.6 20 Sur 33 Sudeste 0 -- -- 34
2020-10-19 12:00:00 17.4 19 Sudeste 32 Sudeste 0 -- -- 39
2020-10-19 11:00:00 15.1 17 Sudeste 30 Sudeste 0 -- -- 44
2020-10-19 10:00:00 12.4 14 Sudeste 26 Sudeste 0 -- -- 48
2020-10-19 09:00:00 10.3 13 Sudeste 24 Sudeste 0 -- -- 50
2020-10-19 08:00:00 10.5 13 Sudeste 30 Sudeste 0 -- -- 48
2020-10-19 07:00:00 10.5 13 Sudeste 21 Sudeste 0 -- -- 47
2020-10-19 06:00:00 9.9 7 Sudeste 16 Este 0 -- -- 51
2020-10-19 05:00:00 10.7 8 Sudeste 17 Sudeste 0 -- -- 49
2020-10-19 04:00:00 10.6 5 Sudeste 18 Sudeste 0 -- -- 50
2020-10-19 03:00:00 10.9 8 Sudeste 20 Sudeste 0 -- -- 50
2020-10-19 02:00:00 11.7 13 Sudeste 21 Sudeste 0 -- -- 49
2020-10-19 01:00:00 10.8 11 Sudeste 18 Sudeste 0 -- -- 56
2020-10-19 00:00:00 9.5 4 Este 15 Este 0 -- -- 64
2020-10-18 23:00:00 7 3 Este 9 Este 0 -- -- 73
2020-10-18 22:00:00 8.4 0 Calma 0 Calma 0 -- -- 68
2020-10-18 21:00:00 11 0 Calma 0 Calma 0 -- -- 60
2020-10-18 20:00:00 13.9 0 Calma 9 Sur 0 -- -- 51
2020-10-18 19:00:00 17.9 3 Sudoeste 13 Sudoeste 0 -- -- 40
2020-10-18 18:00:00 20.1 0 Calma 10 Sudoeste 0 -- -- 35
2020-10-18 17:00:00 20.2 2 Sur 10 Sur 0 -- -- 34
2020-10-18 16:00:00 19.5 3 Este 11 Sudeste 0 -- -- 37
2020-10-18 15:00:00 18.2 4 Sudoeste 12 Sur 0 -- -- 42
2020-10-18 14:00:00 17.4 3 Sur 10 Sur 0 -- -- 43
2020-10-18 13:00:00 16.5 4 Sur 10 Sudoeste 0 -- -- 42
2020-10-18 12:00:00 14.1 5 Sur 8 Sudoeste 0 -- -- 51
2020-10-18 11:00:00 9.5 0 Calma 4 Noroeste 0 -- -- 69
2020-10-18 10:00:00 5.3 0 Calma 6 Este 0 -- -- 83
2020-10-18 09:00:00 2 0 Calma 2 Sudoeste 0 -- -- 87
2020-10-18 08:00:00 2.9 0 Calma 4 Este 0 -- -- 84
2020-10-18 07:00:00 3 0 Calma 3 Nordeste 0 -- -- 84
2020-10-18 06:00:00 2.9 0 Calma 3 Este 0 -- -- 83
2020-10-18 05:00:00 3.4 3 Este 8 Este 0 -- -- 82
2020-10-18 04:00:00 3.4 0 Calma 6 Este 0 -- -- 80
2020-10-18 03:00:00 4 3 Este 6 Este 0 -- -- 79
2020-10-18 02:00:00 3.8 3 Este 6 Este 0 -- -- 78
2020-10-18 01:00:00 4.1 0 Calma 4 Este 0 -- -- 76
2020-10-18 00:00:00 4.6 3 Este 4 Este 0 -- -- 74
2020-10-17 23:00:00 5.1 0 Calma 4 Este 0 -- -- 73
2020-10-17 22:00:00 6.2 0 Calma 3 Sudeste 0 -- -- 68
2020-10-17 21:00:00 8.5 0 Calma 5 Este 0 -- -- 60
2020-10-17 20:00:00 12 4 Este 5 Este 0 -- -- 50
2020-10-17 19:00:00 15.3 2 Norte 8 Noroeste 0 -- -- 39
2020-10-17 18:00:00 16.1 3 Oeste 13 Sudoeste 0 -- -- 39
2020-10-17 17:00:00 16 6 Oeste 21 Oeste 0 -- -- 38
2020-10-17 16:00:00 15.6 9 Oeste 22 Oeste 0 -- -- 40
2020-10-17 15:00:00 15.3 9 Oeste 26 Sudoeste 0 -- -- 39
2020-10-17 14:00:00 14.4 14 Sudoeste 22 Sudoeste 0 -- -- 43
2020-10-17 13:00:00 12.9 9 Sudoeste 18 Sudoeste 0 -- -- 48
2020-10-17 12:00:00 11.2 7 Sur 14 Sudoeste 0 -- -- 54
2020-10-17 11:00:00 9.3 7 Sudoeste 13 Sudoeste 0 -- -- 58
2020-10-17 10:00:00 6.7 6 Sur 13 Sur 0 -- -- 70
2020-10-17 09:00:00 2.8 2 Este 5 Sudeste 0 -- -- 84
2020-10-17 08:00:00 1.5 0 Calma 6 Sudeste 0 -- -- 88
2020-10-17 07:00:00 1.6 0 Calma 5 Este 0 -- -- 87
2020-10-17 06:00:00 1.1 0 Calma 6 Sudeste 0 -- -- 88
2020-10-17 05:00:00 1.7 4 Este 8 Este 0 -- -- 87
2020-10-17 04:00:00 1 0 Calma 6 Sudeste 0 -- -- 88
2020-10-17 03:00:00 1.3 0 Calma 5 Sudeste 0 -- -- 86
2020-10-17 02:00:00 1.4 0 Calma 5 Este 0 -- -- 85
2020-10-17 01:00:00 2.2 2 Este 5 Sudeste 0 -- -- 83
2020-10-17 00:00:00 3.2 3 Sudeste 10 Sudeste 0 -- -- 78
2020-10-16 23:00:00 3.8 0 Calma 4 Sudeste 0 -- -- 77
2020-10-16 22:00:00 5.3 0 Calma 10 Este 0 -- -- 71
2020-10-16 21:00:00 7.6 5 Este 9 Norte 0 -- -- 64
2020-10-16 20:00:00 8.7 7 Norte 12 Noroeste 0 -- -- 57
2020-10-16 19:00:00 11.3 6 Noroeste 19 Norte 0 -- -- 49
2020-10-16 18:00:00 12.3 9 Nordeste 19 Noroeste 0 -- -- 48
2020-10-16 17:00:00 12.8 6 Nordeste 24 Norte 0 -- -- 47
2020-10-16 16:00:00 12.5 12 Norte 23 Norte 0 -- -- 44
2020-10-16 15:00:00 12.2 13 Norte 26 Norte 0 -- -- 47
2020-10-16 14:00:00 11.4 10 Norte 27 Norte 0 -- -- 49
2020-10-16 13:00:00 9.6 9 Norte 23 Norte 0 -- -- 59
2020-10-16 12:00:00 7.9 12 Norte 20 Norte 0 -- -- 68
2020-10-16 11:00:00 6.9 8 Norte 15 Norte 0 -- -- 81
2020-10-16 10:00:00 5.2 5 Nordeste 10 Nordeste 0 -- -- 92
2020-10-16 09:00:00 2.1 0 Calma 5 Nordeste 0 -- -- 95
2020-10-16 08:00:00 1.4 0 Calma 6 Oeste 0 -- -- 95
2020-10-16 07:00:00 1.7 4 Nordeste 8 Norte 0 -- -- 96
2020-10-16 06:00:00 0.8 3 Norte 6 Norte 0 -- -- 95
2020-10-16 05:00:00 1.3 2 Oeste 6 Sur 0 -- -- 95
2020-10-16 04:00:00 0.2 3 Norte 10 Oeste 0 -- -- 95
2020-10-16 03:00:00 0 3 Nordeste 5 Este 0 -- -- 93
2020-10-16 02:00:00 0.4 3 Oeste 7 Norte 0 -- -- 91
2020-10-16 01:00:00 1.2 2 Noroeste 12 Norte 0 -- -- 90
2020-10-16 00:00:00 2.1 6 Norte 12 Nordeste 0 -- -- 88
2020-10-15 23:00:00 3.1 8 Nordeste 14 Norte 0 -- -- 88
2020-10-15 22:00:00 3.7 3 Nordeste 16 Nordeste 0 -- -- 84
2020-10-15 21:00:00 4.8 12 Nordeste 22 Norte 0 -- -- 83
2020-10-15 20:00:00 6 14 Nordeste 30 Nordeste 0 -- -- 75
2020-10-15 19:00:00 7.4 17 Norte 37 Nordeste 0 -- -- 67
2020-10-15 18:00:00 9 21 Norte 41 Norte 0 -- -- 65
2020-10-15 17:00:00 9.4 21 Norte 39 Norte 0 -- -- 62
2020-10-15 16:00:00 11.2 18 Norte 33 Nordeste 0 -- -- 54
2020-10-15 15:00:00 10.5 20 Norte 36 Norte 0 -- -- 62
2020-10-15 14:00:00 9.6 15 Norte 26 Norte 0 -- -- 69
2020-10-15 13:00:00 8.1 9 Noroeste 17 Noroeste 0 -- -- 79
2020-10-15 12:00:00 7 6 Norte 12 Norte 0 -- -- 85
2020-10-15 11:00:00 5.1 3 Oeste 9 Sudoeste 0 -- -- 88
2020-10-15 10:00:00 4.2 2 Sudoeste 6 Sur 0 -- -- 91
2020-10-15 09:00:00 3.1 3 Sudoeste 6 Sudoeste 0 -- -- 94
2020-10-15 08:00:00 2.8 3 Sudeste 6 Sudeste 0 -- -- 94
2020-10-15 07:00:00 2.4 0 Calma 4 Norte 0 -- -- 96
2020-10-15 06:00:00 1.2 0 Calma 3 Este 0 -- -- 95
2020-10-15 05:00:00 1.4 0 Calma 3 Oeste 0 -- -- 94
2020-10-15 04:00:00 1.6 0 Calma 4 Nordeste 0 -- -- 93
2020-10-15 03:00:00 2.1 0 Calma 7 Sudoeste 0 -- -- 92
2020-10-15 02:00:00 2.8 3 Noroeste 8 Oeste 0 -- -- 91
2020-10-15 01:00:00 3.7 4 Norte 10 Noroeste 0 -- -- 89
2020-10-15 00:00:00 4.7 5 Nordeste 15 Nordeste 0 -- -- 86
2020-10-14 23:00:00 5.1 8 Nordeste 27 Norte 0 -- -- 86
2020-10-14 22:00:00 5.7 14 Nordeste 28 Nordeste 0 -- -- 83
2020-10-14 21:00:00 6.7 21 Norte 32 Norte 0 -- -- 82
2020-10-14 20:00:00 7.5 17 Nordeste 30 Nordeste 0 -- -- 82
2020-10-14 19:00:00 9.5 16 Nordeste 26 Nordeste 0 -- -- 64
2020-10-14 18:00:00 9.5 16 Nordeste 32 Nordeste 0 -- -- 64
2020-10-14 17:00:00 10.4 20 Norte 35 Norte 0 -- -- 61
2020-10-14 16:00:00 11.9 19 Norte 30 Norte 0 -- -- 56
2020-10-14 15:00:00 13.5 8 Norte 22 Noroeste 0 -- -- 47
2020-10-14 14:00:00 12.3 10 Noroeste 25 Norte 0 -- -- 55
2020-10-14 13:00:00 10.9 8 Noroeste 22 Norte 0 -- -- 62
2020-10-14 12:00:00 9.2 4 Noroeste 10 Oeste 0 -- -- 73
2020-10-14 11:00:00 6.3 4 Oeste 7 Sudoeste 0 -- -- 86
2020-10-14 10:00:00 3.6 3 Sudoeste 6 Noroeste 0 -- -- 94
2020-10-14 09:00:00 1.7 0 Calma 8 Este 0 -- -- 93
2020-10-14 08:00:00 1 0 Calma 5 Nordeste 0 -- -- 93
2020-10-14 07:00:00 1.2 0 Calma 5 Nordeste 0 -- -- 91
2020-10-14 06:00:00 1.8 0 Calma 3 Norte 0 -- -- 91
2020-10-14 05:00:00 2.5 0 Calma 5 Norte 0 -- -- 90
2020-10-14 04:00:00 3.8 0 Calma 4 Noroeste 0 -- -- 88
2020-10-14 03:00:00 4.9 4 Norte 10 Nordeste 0 -- -- 84
2020-10-14 02:00:00 6 7 Nordeste 19 Nordeste 0 -- -- 80
2020-10-14 01:00:00 7.5 13 Nordeste 24 Norte 0 -- -- 76
2020-10-14 00:00:00 8 16 Nordeste 35 Nordeste 0 -- -- 77
2020-10-13 23:00:00 8.3 19 Nordeste 41 Nordeste 0 -- -- 80
2020-10-13 22:00:00 8.7 24 Nordeste 43 Nordeste 0 -- -- 80
2020-10-13 21:00:00 9.6 18 Norte 37 Nordeste 0 -- -- 79
2020-10-13 20:00:00 10.8 22 Nordeste 34 Nordeste 0 -- -- 75
2020-10-13 19:00:00 13.5 18 Nordeste 31 Nordeste 0 -- -- 65
2020-10-13 18:00:00 15.7 18 Nordeste 28 Nordeste 0 -- -- 59
2020-10-13 17:00:00 17.4 10 Norte 18 Noroeste 0 -- -- 49
2020-10-13 16:00:00 16.6 6 Noroeste 27 Oeste 0 -- -- 53
2020-10-13 15:00:00 16.5 9 Oeste 21 Oeste 0 -- -- 55
2020-10-13 14:00:00 15.5 6 Oeste 17 Norte 0 -- -- 61
2020-10-13 13:00:00 14.1 5 Nordeste 12 Norte 0 -- -- 69
2020-10-13 12:00:00 12 3 Nordeste 13 Sur 0 -- -- 75
2020-10-13 11:00:00 -- -- -- -- -- -- -- -- --
2020-10-13 10:00:00 -- -- -- -- -- -- -- -- --
2020-10-13 09:00:00 8.3 6 Sur 14 Sur 0 -- -- 78
2020-10-13 08:00:00 8.4 7 Sur 11 Sur 0 -- -- 78
2020-10-13 07:00:00 8.4 4 Sudeste 10 Sur 0 -- -- 76
2020-10-13 06:00:00 8.1 5 Sur 17 Sur 0 -- -- 73
2020-10-13 05:00:00 7.6 9 Sur 14 Sur 0 -- -- 71
2020-10-13 04:00:00 -- -- -- -- -- -- -- -- --
2020-10-13 03:00:00 9.1 9 Sur 14 Sudoeste 0 -- -- 63
2020-10-13 02:00:00 9.1 9 Sudoeste 13 Sudoeste 0 -- -- 63
2020-10-13 01:00:00 -- -- -- -- -- -- -- -- --
2020-10-13 00:00:00 10.7 10 Sur 18 Sudoeste 0 -- -- 56
2020-10-12 23:00:00 11.4 11 Sudoeste 15 Sudoeste 0 -- -- 53
2020-10-12 22:00:00 11 4 Sudoeste 12 Sur 0 -- -- 60
2020-10-12 21:00:00 11.7 7 Sur 10 Sur 0 -- -- 61
2020-10-12 20:00:00 13.1 4 Este 12 Nordeste 0 -- -- 55
2020-10-12 19:00:00 14.9 8 Norte 26 Noroeste 0 -- -- 49
2020-10-12 18:00:00 15.8 13 Norte 24 Noroeste 0 -- -- 46
2020-10-12 17:00:00 15.7 16 Noroeste 26 Noroeste 0 -- -- 46
2020-10-12 16:00:00 15.2 9 Norte 28 Norte 0 -- -- 49
2020-10-12 15:00:00 14.1 14 Norte 33 Norte 0 -- -- 51
2020-10-12 14:00:00 12.3 19 Norte 33 Nordeste 0 -- -- 58
2020-10-12 13:00:00 11.3 20 Norte 31 Norte 0 -- -- 61
2020-10-12 12:00:00 10 21 Norte 30 Norte 0 -- -- 72
2020-10-12 11:00:00 8.2 14 Norte 22 Norte 0 -- -- 86
2020-10-12 10:00:00 7.3 11 Noroeste 17 Noroeste 0 -- -- 91
2020-10-12 09:00:00 5.6 5 Noroeste 14 Norte 0 -- -- 92
2020-10-12 08:00:00 5.5 3 Oeste 12 Noroeste 0 -- -- 88
2020-10-12 07:00:00 6 9 Norte 18 Norte 0 -- -- 88
2020-10-12 06:00:00 6 8 Norte 17 Norte 0 -- -- 88
2020-10-12 05:00:00 5.6 9 Norte 18 Norte 0 -- -- 88
2020-10-12 04:00:00 -- -- -- -- -- -- -- -- --
2020-10-12 03:00:00 5.5 7 Norte 17 Norte 0 -- -- 89
2020-10-12 02:00:00 6.1 14 Norte 21 Nordeste 0 -- -- 86
2020-10-12 01:00:00 6 13 Norte 39 Norte 0 -- -- 83
2020-10-12 00:00:00 6.3 15 Norte 26 Norte 0 -- -- 83
2020-10-11 23:00:00 6.3 9 Norte 34 Norte 0 -- -- 85
2020-10-11 22:00:00 6.7 17 Norte 45 Norte 0 -- -- 80
2020-10-11 21:00:00 -- -- -- -- -- -- -- -- --
2020-10-11 20:00:00 -- -- -- -- -- -- -- -- --
2020-10-11 19:00:00 10.1 26 Norte 50 Norte 0 -- -- 61
2020-10-11 18:00:00 11.6 27 Norte 61 Norte 0 -- -- 54
2020-10-11 17:00:00 11.8 36 Norte 58 Norte 0 -- -- 56
2020-10-11 16:00:00 11.3 24 Norte 38 Norte 0 -- -- 64
2020-10-11 15:00:00 12 20 Norte 36 Nordeste 0 -- -- 54
2020-10-11 14:00:00 11.2 23 Norte 43 Norte 0 -- -- 62
2020-10-11 13:00:00 10.9 20 Nordeste 37 Norte 0 -- -- 61
2020-10-11 12:00:00 9.2 18 Norte 35 Norte 0 -- -- 70
2020-10-11 11:00:00 8.4 18 Norte 31 Nordeste 0 -- -- 73
2020-10-11 10:00:00 7.6 17 Norte 26 Nordeste 0 -- -- 72
2020-10-11 09:00:00 6.6 12 Norte 23 Norte 0 -- -- 77
2020-10-11 08:00:00 7 12 Nordeste 27 Nordeste 0 -- -- 77
2020-10-11 07:00:00 7.1 14 Nordeste 32 Norte 0 -- -- 75
2020-10-11 06:00:00 7.4 19 Norte 35 Norte 0 -- -- 75
2020-10-11 05:00:00 7.6 16 Nordeste 26 Nordeste 0 -- -- 78
2020-10-11 04:00:00 7.1 14 Norte 26 Nordeste 0 -- -- 86
2020-10-11 03:00:00 7.8 16 Norte 28 Nordeste 0 -- -- 84
2020-10-11 02:00:00 7.2 9 Nordeste 24 Nordeste 0 -- -- 85
2020-10-11 01:00:00 7.7 17 Nordeste 35 Nordeste 0 -- -- 87
2020-10-11 00:00:00 7.8 17 Norte 28 Nordeste 0 -- -- 89
2020-10-10 23:00:00 8 7 Nordeste 21 Nordeste 0 -- -- 84
2020-10-10 22:00:00 8.6 13 Nordeste 28 Nordeste 0 -- -- 82
2020-10-10 21:00:00 9.4 19 Norte 35 Norte 0 -- -- 79
2020-10-10 20:00:00 10.6 23 Norte 41 Nordeste 0 -- -- 69
2020-10-10 19:00:00 12.7 22 Nordeste 42 Norte 0 -- -- 59
2020-10-10 18:00:00 13.3 29 Nordeste 48 Nordeste 0 -- -- 57
2020-10-10 17:00:00 13.5 26 Nordeste 48 Nordeste 0 -- -- 61
2020-10-10 16:00:00 14.2 27 Nordeste 46 Nordeste 0 -- -- 61
2020-10-10 15:00:00 13.9 27 Nordeste 59 Norte 0 -- -- 67
2020-10-10 14:00:00 14 28 Norte 43 Norte 0 -- -- 73
2020-10-10 13:00:00 14.6 21 Norte 37 Nordeste 0 -- -- 69
2020-10-10 12:00:00 14.8 20 Nordeste 41 Nordeste 0 -- -- 66
2020-10-10 11:00:00 14.4 22 Nordeste 36 Nordeste 0 -- -- 69
2020-10-10 10:00:00 12.6 12 Nordeste 24 Nordeste 0 -- -- 76
2020-10-10 09:00:00 10.3 12 Nordeste 20 Este 0 -- -- 83
2020-10-10 08:00:00 10.3 11 Nordeste 19 Nordeste 0 -- -- 82
2020-10-10 07:00:00 10 10 Nordeste 28 Nordeste 0 -- -- 85
2020-10-10 06:00:00 10.7 15 Nordeste 29 Nordeste 0 -- -- 82
2020-10-10 05:00:00 10.6 17 Nordeste 33 Norte 0 -- -- 86
2020-10-10 04:00:00 10.9 14 Nordeste 24 Nordeste 0 -- -- 88
2020-10-10 03:00:00 11.4 13 Nordeste 27 Nordeste 0 -- -- 87
2020-10-10 02:00:00 11.8 16 Nordeste 27 Nordeste 0 -- -- 87
2020-10-10 01:00:00 12.2 16 Nordeste 28 Nordeste 0 -- -- 87
2020-10-10 00:00:00 12.7 14 Nordeste 31 Nordeste 0 -- -- 86
2020-10-09 23:00:00 13.1 18 Nordeste 33 Nordeste 0 -- -- 86
2020-10-09 22:00:00 13.7 16 Nordeste 32 Nordeste 0 -- -- 83
2020-10-09 21:00:00 15.3 17 Nordeste 29 Nordeste 0 -- -- 78
2020-10-09 20:00:00 17.2 12 Nordeste 26 Nordeste 0 -- -- 71
2020-10-09 19:00:00 20.3 13 Nordeste 22 Nordeste 0 -- -- 59
2020-10-09 18:00:00 23 8 Norte 14 Noroeste 0 -- -- 40
2020-10-09 17:00:00 23.2 6 Oeste 16 Oeste 0 -- -- 38
2020-10-09 16:00:00 22.5 6 Noroeste 16 Sudoeste 0 -- -- 42
2020-10-09 15:00:00 22.1 7 Oeste 16 Oeste 0 -- -- 46
2020-10-09 14:00:00 21.3 6 Noroeste 16 Norte 0 -- -- 49
2020-10-09 13:00:00 20.2 3 Oeste 8 Oeste 0 -- -- 53
2020-10-09 12:00:00 17.8 3 Sudoeste 7 Sudoeste 0 -- -- 60
2020-10-09 11:00:00 14.8 2 Oeste 5 Oeste 0 -- -- 71
2020-10-09 10:00:00 11.7 0 Calma 5 Norte 0 -- -- 84
2020-10-09 09:00:00 8.5 0 Calma 8 Este 0 -- -- 85
2020-10-09 08:00:00 7.9 2 Nordeste 5 Norte 0 -- -- 90
2020-10-09 07:00:00 8.6 4 Este 6 Este 0 -- -- 89
2020-10-09 06:00:00 8.6 0 Calma 3 Nordeste 0 -- -- 88
2020-10-09 05:00:00 9.3 0 Calma 4 Este 0 -- -- 85
2020-10-09 04:00:00 10.2 4 Este 6 Este 0 -- -- 83
2020-10-09 03:00:00 10.8 5 Este 8 Este 0 -- -- 81
2020-10-09 02:00:00 10.4 2 Este 7 Este 0 -- -- 81
2020-10-09 01:00:00 10.9 4 Sudeste 9 Sudeste 0 -- -- 78
2020-10-09 00:00:00 11 2 Este 4 Nordeste 0 -- -- 79
2020-10-08 23:00:00 11.5 0 Calma 6 Este 0 -- -- 77
2020-10-08 22:00:00 12.8 3 Este 6 Este 0 -- -- 72
2020-10-08 21:00:00 15.1 2 Este 3 Nordeste 0 -- -- 64
2020-10-08 20:00:00 18.6 0 Calma 4 Noroeste 0 -- -- 53
2020-10-08 19:00:00 21.9 2 Oeste 17 Oeste 0 -- -- 41
2020-10-08 18:00:00 21.9 8 Oeste 23 Oeste 0 -- -- 41
2020-10-08 17:00:00 21.4 6 Oeste 18 Oeste 0 -- -- 54
2020-10-08 16:00:00 21.7 12 Sudoeste 20 Sur 0 -- -- 50
2020-10-08 15:00:00 22.7 5 Oeste 15 Oeste 0 -- -- 48
2020-10-08 14:00:00 21.8 9 Sur 15 Sur 0 -- -- 51
2020-10-08 13:00:00 19.1 2 Noroeste 8 Sudoeste 0 -- -- 65
2020-10-08 12:00:00 16.6 3 Oeste 8 Oeste 0 -- -- 73
2020-10-08 11:00:00 13.8 4 Oeste 8 Sudoeste 0 -- -- 85
2020-10-08 10:00:00 9.9 2 Norte 4 Nordeste 0 -- -- 94
2020-10-08 09:00:00 7 0 Calma 3 Sudeste 0 -- -- 94
2020-10-08 08:00:00 7.6 2 Sudoeste 5 Oeste 0 -- -- 93
2020-10-08 07:00:00 9 3 Nordeste 6 Nordeste 0 -- -- 93
2020-10-08 06:00:00 9.3 3 Nordeste 5 Nordeste 0 -- -- 93
2020-10-08 05:00:00 9.4 2 Este 8 Este 0 -- -- 92
2020-10-08 04:00:00 9.4 4 Nordeste 8 Este 0 -- -- 93
2020-10-08 03:00:00 9.3 2 Nordeste 4 Sudeste 0 -- -- 90
2020-10-08 02:00:00 10.2 0 Calma 7 Sur 0 -- -- 90
2020-10-08 01:00:00 10.6 4 Nordeste 8 Este 0 -- -- 88
2020-10-08 00:00:00 12.2 3 Sudeste 9 Este 0 -- -- 83
2020-10-07 23:00:00 13.4 3 Este 12 Nordeste 0 -- -- 79
2020-10-07 22:00:00 15.1 8 Este 11 Este 0 -- -- 74
2020-10-07 21:00:00 16.9 4 Este 9 Este 0 -- -- 67
2020-10-07 20:00:00 19 3 Nordeste 7 Nordeste 0 -- -- 59
2020-10-07 19:00:00 21.7 2 Noroeste 12 Norte 0 -- -- 50
2020-10-07 18:00:00 22.1 5 Norte 11 Norte 0 -- -- 51
2020-10-07 17:00:00 21.9 3 Noroeste 13 Norte 0 -- -- 50
2020-10-07 16:00:00 21.2 5 Noroeste 11 Noroeste 0 -- -- 54
2020-10-07 15:00:00 20.7 7 Sur 13 Sur 0 -- -- 55
2020-10-07 14:00:00 19.2 2 Nordeste 12 Norte 0 -- -- 61
2020-10-07 13:00:00 17.7 5 Nordeste 13 Sudoeste 0 -- -- 65
2020-10-07 12:00:00 15.5 6 Sur 12 Sur 0 -- -- 73
2020-10-07 11:00:00 13.6 4 Sudoeste 13 Sudoeste 0 -- -- 79
2020-10-07 10:00:00 10.9 9 Sur 17 Sur 0 -- -- 87
2020-10-07 09:00:00 8.8 12 Sur 15 Sur 0 -- -- 92
2020-10-07 08:00:00 8.2 4 Sudeste 10 Sur 0 -- -- 91
2020-10-07 07:00:00 8.9 5 Sudeste 11 Sur 0 -- -- 90
2020-10-07 06:00:00 8.8 6 Sudeste 11 Sudeste 0 -- -- 90
2020-10-07 05:00:00 9.3 2 Este 9 Sur 0 -- -- 86
2020-10-07 04:00:00 10.2 6 Sur 15 Sur 0 -- -- 84
2020-10-07 03:00:00 10.7 5 Sur 12 Sudoeste 0 -- -- 82
2020-10-07 02:00:00 11.3 3 Sur 11 Sudoeste 0 -- -- 79
2020-10-07 01:00:00 11.9 3 Sudoeste 13 Sur 0 -- -- 77
2020-10-07 00:00:00 12.6 6 Sudoeste 11 Sudoeste 0 -- -- 73
2020-10-06 23:00:00 13.9 4 Sudoeste 15 Sudoeste 0 -- -- 69
2020-10-06 22:00:00 14.7 4 Sudoeste 17 Oeste 0 -- -- 67
2020-10-06 21:00:00 16.3 5 Oeste 11 Oeste 0 -- -- 67
2020-10-06 20:00:00 18 4 Oeste 16 Oeste 0 -- -- 63
2020-10-06 19:00:00 20.1 9 Oeste 25 Oeste 0 -- -- 58
2020-10-06 18:00:00 21.3 12 Oeste 31 Sudoeste 0 -- -- 54
2020-10-06 17:00:00 20.7 13 Sudoeste 34 Sudoeste 0 -- -- 61
2020-10-06 16:00:00 18.3 17 Sudoeste 36 Sur 0 -- -- 69
2020-10-06 15:00:00 17.2 26 Sudoeste 35 Sudoeste 0 -- -- 74
2020-10-06 14:00:00 17.1 17 Sudoeste 29 Sudoeste 0 -- -- 73
2020-10-06 13:00:00 16 15 Sudoeste 31 Oeste 0 -- -- 80
2020-10-06 12:00:00 14.3 14 Sudoeste 25 Sudoeste 0 -- -- 84
2020-10-06 11:00:00 13.2 13 Sudoeste 26 Sudoeste 0 -- -- 89
2020-10-06 10:00:00 12.4 12 Sudoeste 24 Sudoeste 0 -- -- 91
2020-10-06 09:00:00 12.1 13 Sudoeste 21 Sudoeste 0 -- -- 92
2020-10-06 08:00:00 12 12 Sudoeste 22 Sudoeste 0 -- -- 91
2020-10-06 07:00:00 12.1 10 Sudoeste 18 Sudoeste 0 -- -- 89
2020-10-06 06:00:00 12.3 9 Sudoeste 19 Sudoeste 0 -- -- 89
2020-10-06 05:00:00 12.3 13 Sudoeste 22 Sudoeste 0 -- -- 87
2020-10-06 04:00:00 12.5 12 Sudoeste 23 Sudoeste 0 -- -- 84
2020-10-06 03:00:00 12.8 14 Sudoeste 22 Sudoeste 0 -- -- 81
2020-10-06 02:00:00 13 15 Sudoeste 26 Sudoeste 0 -- -- 79
2020-10-06 01:00:00 13.1 10 Sudoeste 23 Sudoeste 0 -- -- 77
2020-10-06 00:00:00 13.3 14 Sudoeste 24 Sudoeste 0 -- -- 71
2020-10-05 23:00:00 13.6 12 Sudoeste 22 Sudoeste 0 -- -- 66
2020-10-05 22:00:00 13.8 12 Sudoeste 23 Sudoeste 0 -- -- 60
2020-10-05 21:00:00 14 13 Sur 18 Sur 0 -- -- 53
2020-10-05 20:00:00 14.5 9 Sudoeste 20 Sudoeste 0 -- -- 50
2020-10-05 19:00:00 15.9 11 Oeste 27 Oeste 0 -- -- 44
2020-10-05 18:00:00 16.6 12 Oeste 27 Sudoeste 0 -- -- 42
2020-10-05 17:00:00 16 16 Oeste 32 Sudoeste 0 -- -- 42
2020-10-05 16:00:00 15.8 16 Oeste 30 Sudoeste 0 -- -- 44
2020-10-05 15:00:00 14.7 13 Oeste 28 Oeste 0 -- -- 49
2020-10-05 14:00:00 13.3 12 Oeste 27 Sudoeste 0 -- -- 52
2020-10-05 13:00:00 13.4 13 Oeste 29 Oeste 0 -- -- 57
2020-10-05 12:00:00 11.2 13 Oeste 23 Oeste 0 -- -- 69
2020-10-05 11:00:00 9.6 9 Oeste 19 Oeste 0 -- -- 79
2020-10-05 10:00:00 7.2 8 Sudoeste 14 Sudoeste 0 -- -- 90
2020-10-05 09:00:00 4.8 9 Sudoeste 13 Sudoeste 0 -- -- 93
2020-10-05 08:00:00 4.7 6 Sudoeste 10 Sudoeste 0 -- -- 89
2020-10-05 07:00:00 5.2 6 Sudoeste 12 Sudoeste 0 -- -- 90
2020-10-05 06:00:00 5.2 11 Sudoeste 19 Sudoeste 0 -- -- 90
2020-10-05 05:00:00 5 8 Sur 26 Oeste 0 -- -- 88
2020-10-05 04:00:00 6.1 9 Oeste 21 Oeste 0 -- -- 85
2020-10-05 03:00:00 6.6 7 Oeste 22 Oeste 0 -- -- 84
2020-10-05 02:00:00 6.8 6 Sudoeste 20 Sudoeste 0 -- -- 84
2020-10-05 01:00:00 7.8 9 Oeste 19 Oeste 0 -- -- 81
2020-10-05 00:00:00 8.8 8 Oeste 27 Oeste 0 -- -- 74
2020-10-04 23:00:00 8.9 14 Oeste 27 Oeste 0 -- -- 71
2020-10-04 22:00:00 9.3 7 Oeste 22 Oeste 0 -- -- 70
2020-10-04 21:00:00 10.1 8 Oeste 29 Oeste 0 -- -- 66
2020-10-04 20:00:00 11.8 14 Oeste 33 Oeste 0 -- -- 59
2020-10-04 19:00:00 13.3 20 Oeste 45 Oeste 0 -- -- 51
2020-10-04 18:00:00 13.9 23 Oeste 46 Oeste 0 -- -- 45
2020-10-04 17:00:00 15.3 23 Oeste 47 Oeste 0 -- -- 45
2020-10-04 16:00:00 14.5 23 Oeste 52 Oeste 0 -- -- 49
2020-10-04 15:00:00 13.6 23 Oeste 58 Oeste 0 -- -- 52
2020-10-04 14:00:00 14.3 20 Oeste 46 Oeste 0 -- -- 51
2020-10-04 13:00:00 13.5 21 Oeste 42 Oeste 0 -- -- 56
2020-10-04 12:00:00 12.2 19 Oeste 41 Oeste 0 -- -- 70
2020-10-04 11:00:00 9.9 14 Oeste 32 Oeste 0 -- -- 84
2020-10-04 10:00:00 8.5 18 Sudoeste 34 Sudoeste 0 -- -- 93
2020-10-04 09:00:00 7.6 19 Sudoeste 33 Sudoeste 0.8 -- -- 94
2020-10-04 08:00:00 7.3 17 Sudoeste 35 Sudoeste 0.8 -- -- 93
2020-10-04 07:00:00 7.6 22 Sudoeste 34 Sudoeste 0 -- -- 89
2020-10-04 06:00:00 7.4 17 Sudoeste 30 Sudoeste 0 -- -- 89
2020-10-04 05:00:00 6.9 18 Sudoeste 31 Sudoeste 0 -- -- 90
2020-10-04 04:00:00 5.8 13 Sudoeste 25 Sudoeste 0 -- -- 90
2020-10-04 03:00:00 5.9 14 Sudoeste 23 Sudoeste 0 -- -- 88
2020-10-04 02:00:00 6.4 13 Sur 24 Sudoeste 0 -- -- 82
2020-10-04 01:00:00 6.9 15 Sudoeste 24 Sudoeste 0 -- -- 81
2020-10-04 00:00:00 7.1 12 Sudoeste 21 Sudoeste 0 -- -- 76
2020-10-03 23:00:00 7.1 10 Sudoeste 17 Sudoeste 0 -- -- 74
2020-10-03 22:00:00 8.3 6 Oeste 22 Oeste 0 -- -- 69
2020-10-03 21:00:00 8.8 7 Sudoeste 28 Oeste 0 -- -- 63
2020-10-03 20:00:00 10.9 15 Oeste 35 Oeste 0 -- -- 53
2020-10-03 19:00:00 12.5 19 Oeste 41 Oeste 0 -- -- 49
2020-10-03 18:00:00 14 21 Oeste 42 Oeste 0 -- -- 43
2020-10-03 17:00:00 13.3 18 Oeste 45 Oeste 0 -- -- 46
2020-10-03 16:00:00 14.8 23 Oeste 47 Oeste 0 -- -- 45
2020-10-03 15:00:00 14 23 Oeste 44 Oeste 0 -- -- 47
2020-10-03 14:00:00 12.6 23 Sudoeste 46 Oeste 0 -- -- 53
2020-10-03 13:00:00 11.4 18 Oeste 39 Sudoeste 0 -- -- 60
2020-10-03 12:00:00 9.9 17 Oeste 38 Sudoeste 0 -- -- 63
2020-10-03 11:00:00 8.5 20 Oeste 41 Oeste 0 -- -- 69
2020-10-03 10:00:00 6.2 18 Sudoeste 36 Oeste 0 -- -- 78
2020-10-03 09:00:00 4.3 19 Sudoeste 35 Sudoeste 0 -- -- 87
2020-10-03 08:00:00 4 15 Sudoeste 33 Sudoeste 0 -- -- 83
2020-10-03 07:00:00 4.8 14 Oeste 35 Oeste 0 -- -- 80
2020-10-03 06:00:00 4.8 16 Oeste 29 Oeste 0 -- -- 80
2020-10-03 05:00:00 4.7 13 Oeste 32 Oeste 0 -- -- 81
2020-10-03 04:00:00 5 15 Oeste 34 Oeste 0 -- -- 80
2020-10-03 03:00:00 5.2 14 Oeste 35 Oeste 0 -- -- 81
2020-10-03 02:00:00 5.4 13 Oeste 33 Sudoeste 0 -- -- 80
2020-10-03 01:00:00 5.6 15 Sudoeste 32 Sudoeste 0 -- -- 78
2020-10-03 00:00:00 5.8 15 Sudoeste 31 Oeste 0 -- -- 74
2020-10-02 23:00:00 6 16 Oeste 35 Oeste 0 -- -- 73
2020-10-02 22:00:00 6.1 12 Oeste 28 Oeste 0 -- -- 75
2020-10-02 21:00:00 6.5 12 Oeste 34 Oeste 0 -- -- 71
2020-10-02 20:00:00 8.3 18 Oeste 36 Noroeste 0 -- -- 62
2020-10-02 19:00:00 10 21 Oeste 51 Oeste 0 -- -- 51
2020-10-02 18:00:00 11.3 23 Oeste 46 Oeste 0 -- -- 49
2020-10-02 17:00:00 11.3 19 Noroeste 42 Noroeste 0 -- -- 48
2020-10-02 16:00:00 11.4 17 Oeste 41 Oeste 0 -- -- 53
2020-10-02 15:00:00 10.8 19 Oeste 45 Oeste 0 -- -- 49
2020-10-02 14:00:00 11.4 17 Noroeste 45 Noroeste 0 -- -- 52
2020-10-02 13:00:00 10.5 13 Noroeste 36 Oeste 0 -- -- 59
2020-10-02 12:00:00 10 12 Noroeste 37 Noroeste 0 -- -- 64
2020-10-02 11:00:00 9.6 13 Noroeste 42 Noroeste 0.2 -- -- 71
2020-10-02 10:00:00 9.1 24 Oeste 49 Oeste 0 -- -- 85
2020-10-02 09:00:00 10.2 19 Oeste 45 Sudoeste 0.8 -- -- 88
2020-10-02 08:00:00 11.8 17 Oeste 55 Oeste 1.6 -- -- 91
2020-10-02 07:00:00 11.5 21 Oeste 60 Sudoeste 4.6 -- -- 93
2020-10-02 06:00:00 11.4 37 Sudoeste 68 Sudoeste 0.2 -- -- 92
2020-10-02 05:00:00 12.3 42 Sudoeste 69 Sudoeste 0 -- -- 82
2020-10-02 04:00:00 11.8 33 Sudoeste 65 Sudoeste 0 -- -- 79
2020-10-02 03:00:00 11.7 34 Sudoeste 53 Sudoeste 0 -- -- 76
2020-10-02 02:00:00 12.2 27 Sudoeste 51 Sudoeste 0 -- -- 72
2020-10-02 01:00:00 12.7 34 Sudoeste 51 Sudoeste 0 -- -- 69
2020-10-02 00:00:00 13.1 25 Sudoeste 45 Sudoeste 0 -- -- 65
2020-10-01 23:00:00 13.2 26 Sudoeste 39 Sudoeste 0 -- -- 63
2020-10-01 22:00:00 12.9 16 Sudoeste 28 Sudoeste 0 -- -- 60
2020-10-01 21:00:00 13.8 19 Sudoeste 30 Sudoeste 0 -- -- 57
2020-10-01 20:00:00 14.8 18 Sudoeste 39 Sudoeste 0 -- -- 53
2020-10-01 19:00:00 16.3 24 Sudoeste 47 Sudoeste 0 -- -- 50
2020-10-01 18:00:00 17.3 18 Sudoeste 34 Sudoeste 0 -- -- 47
2020-10-01 17:00:00 17.8 21 Sudoeste 37 Sudoeste 0 -- -- 49
2020-10-01 16:00:00 17.3 19 Sudoeste 32 Sudoeste 0 -- -- 55
2020-10-01 15:00:00 15.5 20 Sudoeste 32 Sudoeste 0 -- -- 63
2020-10-01 14:00:00 16 20 Sudoeste 30 Sudoeste 0 -- -- 63
2020-10-01 13:00:00 15 11 Oeste 21 Sudoeste 0 -- -- 65
2020-10-01 12:00:00 14.2 13 Sudoeste 22 Sudoeste 0 -- -- 70
2020-10-01 11:00:00 13.3 10 Sudoeste 22 Oeste 0 -- -- 73
2020-10-01 10:00:00 11.4 12 Sudoeste 23 Sudoeste 0 -- -- 79
2020-10-01 09:00:00 10.3 9 Sudoeste 21 Sudoeste 0 -- -- 81
2020-10-01 08:00:00 10 14 Sudoeste 23 Sudoeste 0 -- -- 80
2020-10-01 07:00:00 9.7 14 Sudoeste 23 Sudoeste 0 -- -- 78
2020-10-01 06:00:00 9.8 13 Sur 21 Sur 0 -- -- 75
2020-10-01 05:00:00 10.3 14 Sur 24 Sur 0 -- -- 70
2020-10-01 04:00:00 11.1 14 Sur 20 Sur 0 -- -- 68
2020-10-01 03:00:00 11.6 14 Sur 20 Sudoeste 0 -- -- 67
2020-10-01 02:00:00 12.2 12 Sur 16 Sur 0 -- -- 65
2020-10-01 01:00:00 13.6 10 Sudoeste 14 Sudoeste 0 -- -- 61
2020-10-01 00:00:00 14.2 8 Sudoeste 12 Sudoeste 0 -- -- 58
2020-09-30 23:00:00 14.8 7 Sudoeste 10 Sudoeste 0 -- -- 54
2020-09-30 22:00:00 16 5 Sudoeste 13 Sudoeste 0 -- -- 47
2020-09-30 21:00:00 17.1 9 Sudoeste 13 Sudoeste 0 -- -- 44
2020-09-30 20:00:00 18.7 7 Sudoeste 22 Oeste 0 -- -- 38
2020-09-30 19:00:00 22.4 12 Sudoeste 27 Sudoeste 0 -- -- 31
2020-09-30 18:00:00 23.5 15 Sudoeste 32 Sudoeste 0 -- -- 31
2020-09-30 17:00:00 23.9 14 Sudoeste 33 Sudoeste 0 -- -- 29
2020-09-30 16:00:00 23.7 16 Sudoeste 34 Sudoeste 0 -- -- 30
2020-09-30 15:00:00 23.5 15 Sudoeste 28 Sudoeste 0 -- -- 33
2020-09-30 14:00:00 22.9 13 Sudoeste 29 Sudoeste 0 -- -- 36
2020-09-30 13:00:00 21.5 10 Sudoeste 24 Sudoeste 0 -- -- 39
2020-09-30 12:00:00 18.9 9 Sudoeste 17 Sur 0 -- -- 43
2020-09-30 11:00:00 16.7 9 Sur 14 Sur 0 -- -- 46
2020-09-30 10:00:00 11.6 0 Calma 6 Sudeste 0 -- -- 70
2020-09-30 09:00:00 7.8 4 Este 6 Este 0 -- -- 72
2020-09-30 08:00:00 6.3 0 Calma 9 Sudeste 0 -- -- 80
2020-09-30 07:00:00 5.9 2 Sudeste 6 Sudeste 0 -- -- 82
2020-09-30 06:00:00 5.9 0 Calma 2 Sudeste 0 -- -- 83
2020-09-30 05:00:00 6.5 3 Nordeste 4 Nordeste 0 -- -- 81
2020-09-30 04:00:00 6.5 0 Calma 3 Sur 0 -- -- 80
2020-09-30 03:00:00 7.1 0 Calma 5 Este 0 -- -- 75
2020-09-30 02:00:00 8.1 2 Este 6 Este 0 -- -- 71
2020-09-30 01:00:00 7.8 0 Calma 3 Nordeste 0 -- -- 74
2020-09-30 00:00:00 8.7 0 Calma 2 Norte 0 -- -- 72